createdAt,value
2018-01-02T00:00:25.593Z,998.96
2018-01-02T00:01:34.534Z,998.98
2018-01-02T00:02:43.477Z,999.01
2018-01-02T00:03:52.419Z,999.04
2018-01-02T00:05:01.403Z,999.08
2018-01-02T00:06:10.347Z,999.07
2018-01-02T00:07:19.545Z,999.1
2018-01-02T00:08:28.739Z,999.13
2018-01-02T00:09:37.681Z,999.12
2018-01-02T00:10:46.613Z,999.17
2018-01-02T00:11:55.817Z,999.14
2018-01-02T00:13:04.745Z,999.2
2018-01-02T00:14:13.421Z,999.17
2018-01-02T00:15:22.413Z,999.17
2018-01-02T00:16:31.345Z,999.22
2018-01-02T00:17:40.559Z,999.21
2018-01-02T00:18:50.029Z,999.17
2018-01-02T00:19:59.279Z,999.2
2018-01-02T00:21:08.479Z,999.2
2018-01-02T00:22:17.693Z,999.22
2018-01-02T00:23:27.160Z,999.21
2018-01-02T00:24:35.835Z,999.23
2018-01-02T00:25:44.519Z,999.25
2018-01-02T00:26:53.712Z,999.27
2018-01-02T00:28:02.909Z,999.33
2018-01-02T00:29:12.363Z,999.33
2018-01-02T00:30:21.302Z,999.38
2018-01-02T00:31:29.967Z,999.34
2018-01-02T00:32:38.899Z,999.39
2018-01-02T00:33:47.832Z,999.41
2018-01-02T00:34:56.513Z,999.43
2018-01-02T00:36:05.709Z,999.44
2018-01-02T00:37:14.649Z,999.47
2018-01-02T00:38:23.578Z,999.49
2018-01-02T00:39:32.554Z,999.54
2018-01-02T00:40:41.232Z,999.52
2018-01-02T00:41:49.908Z,999.57
2018-01-02T00:42:59.112Z,999.57
2018-01-02T00:44:07.797Z,999.6
2018-01-02T00:45:16.732Z,999.58
2018-01-02T00:46:25.680Z,999.62
2018-01-02T00:47:34.679Z,999.61
2018-01-02T00:48:43.360Z,999.69
2018-01-02T00:49:52.572Z,999.66
2018-01-02T00:51:02.022Z,999.68
2018-01-02T00:52:10.693Z,999.72
2018-01-02T00:53:19.369Z,999.75
2018-01-02T00:54:28.050Z,999.79
2018-01-02T00:55:37.263Z,999.74
2018-01-02T00:56:45.936Z,999.78
2018-01-02T00:57:54.874Z,999.75
2018-01-02T00:59:04.334Z,999.74
2018-01-02T01:00:13.274Z,999.84
2018-01-02T01:01:21.950Z,999.86
2018-01-02T01:02:30.887Z,999.85
2018-01-02T01:03:39.821Z,999.85
2018-01-02T01:04:48.753Z,999.94
2018-01-02T01:05:57.694Z,999.93
2018-01-02T01:07:06.375Z,999.93
2018-01-02T01:08:15.068Z,999.95
2018-01-02T01:09:24.256Z,1000.01
2018-01-02T01:10:33.194Z,1000.01
2018-01-02T01:11:42.391Z,999.97
2018-01-02T01:12:51.076Z,1000.02
2018-01-02T01:16:32.939Z,1000.11
2018-01-02T01:17:41.884Z,1000.12
2018-01-02T01:18:51.084Z,1000.13
2018-01-02T01:20:00.025Z,1000.16
2018-01-02T01:21:09.737Z,1000.16
2018-01-02T01:22:19.198Z,1000.16
2018-01-02T01:26:00.732Z,1000.26
2018-01-02T01:27:09.428Z,1000.27
2018-01-02T01:28:18.367Z,1000.27
2018-01-02T01:29:27.296Z,1000.38
2018-01-02T01:30:36.231Z,1000.38
2018-01-02T01:31:45.963Z,1000.41
2018-01-02T01:32:55.673Z,1000.41
2018-01-02T01:34:04.887Z,1000.39
2018-01-02T01:35:13.821Z,1000.42
2018-01-02T01:36:22.498Z,1000.44
2018-01-02T01:37:31.169Z,1000.48
2018-01-02T01:38:40.363Z,1000.51
2018-01-02T01:39:49.295Z,1000.51
2018-01-02T01:40:58.223Z,1000.59
2018-01-02T01:42:07.175Z,1000.58
2018-01-02T01:43:15.849Z,1000.61
2018-01-02T01:44:24.799Z,1000.64
2018-01-02T01:45:33.987Z,1000.62
2018-01-02T01:46:42.685Z,1000.63
2018-01-02T01:47:51.711Z,1000.7
2018-01-02T01:49:01.163Z,1000.74
2018-01-02T01:50:10.358Z,1000.74
2018-01-02T01:51:19.295Z,1000.76
2018-01-02T01:52:28.498Z,1000.78
2018-01-02T01:53:37.426Z,1000.72
2018-01-02T01:54:46.105Z,1000.71
2018-01-02T01:55:55.040Z,1000.68
2018-01-02T01:57:03.979Z,1000.76
2018-01-02T01:58:12.920Z,1000.76
2018-01-02T01:59:22.121Z,1000.77
2018-01-02T02:00:31.770Z,1000.74
2018-01-02T02:01:41.232Z,1000.78
2018-01-02T02:02:49.906Z,1000.85
2018-01-02T02:03:58.832Z,1000.82
2018-01-02T02:05:07.774Z,1000.83
2018-01-02T02:06:16.460Z,1000.88
2018-01-02T02:07:25.400Z,1000.83
2018-01-02T02:08:34.591Z,1000.78
2018-01-02T02:09:43.273Z,1000.76
2018-01-02T02:10:52.461Z,1000.82
2018-01-02T02:12:01.912Z,1000.83
2018-01-02T02:13:11.127Z,1000.84
2018-01-02T02:14:20.057Z,1000.84
2018-01-02T02:15:28.736Z,1000.85
2018-01-02T02:16:37.926Z,1000.86
2018-01-02T02:17:47.123Z,1000.84
2018-01-02T02:18:56.335Z,1000.87
2018-01-02T02:20:05.083Z,1000.84
2018-01-02T02:21:14.308Z,1000.84
2018-01-02T02:22:23.238Z,1000.85
2018-01-02T02:23:32.170Z,1000.88
2018-01-02T02:24:41.363Z,1000.87
2018-01-02T02:25:50.298Z,1000.88
2018-01-02T02:26:59.240Z,1000.89
2018-01-02T02:28:08.181Z,1000.92
2018-01-02T02:29:17.374Z,1000.94
2018-01-02T02:30:26.045Z,1000.93
2018-01-02T02:31:34.990Z,1000.9
2018-01-02T02:32:43.923Z,1000.91
2018-01-02T02:33:53.119Z,1000.92
2018-01-02T02:35:02.067Z,1000.9
2018-01-02T02:36:11.006Z,1000.95
2018-01-02T02:37:19.952Z,1000.91
2018-01-02T02:38:28.624Z,1000.97
2018-01-02T02:39:37.298Z,1000.95
2018-01-02T02:40:46.245Z,1000.97
2018-01-02T02:41:55.187Z,1000.99
2018-01-02T02:43:04.384Z,1001
2018-01-02T02:44:13.328Z,1001.01
2018-01-02T02:45:22.268Z,1000.97
2018-01-02T02:46:31.199Z,1000.95
2018-01-02T02:47:40.135Z,1000.94
2018-01-02T02:48:49.127Z,1000.92
2018-01-02T02:49:57.803Z,1000.96
2018-01-02T02:51:06.745Z,1000.92
2018-01-02T02:52:15.953Z,1000.94
2018-01-02T02:53:24.889Z,1000.93
2018-01-02T02:54:33.833Z,1000.93
2018-01-02T02:55:42.527Z,1000.93
2018-01-02T02:56:51.226Z,1000.95
2018-01-02T02:58:00.238Z,1000.99
2018-01-02T02:59:09.695Z,1000.94
2018-01-02T03:00:18.365Z,1000.96
2018-01-02T03:01:27.815Z,1000.97
2018-01-02T03:02:36.507Z,1000.92
2018-01-02T03:03:45.436Z,1000.91
2018-01-02T03:04:54.379Z,1000.92
2018-01-02T03:06:03.058Z,1000.94
2018-01-02T03:07:12.258Z,1000.98
2018-01-02T03:08:20.941Z,1000.99
2018-01-02T03:09:30.134Z,1001.01
2018-01-02T03:10:45.855Z,1001.11
2018-01-02T03:11:54.890Z,1001.12
2018-01-02T03:13:03.833Z,1001.1
2018-01-02T03:14:13.020Z,1001.13
2018-01-02T03:15:21.686Z,1001.17
2018-01-02T03:16:30.621Z,1001.21
2018-01-02T03:17:39.566Z,1001.23
2018-01-02T03:18:48.503Z,1001.26
2018-01-02T03:19:57.695Z,1001.27
2018-01-02T03:21:06.367Z,1001.29
2018-01-02T03:22:15.042Z,1001.26
2018-01-02T03:23:23.979Z,1001.28
2018-01-02T03:24:32.660Z,1001.28
2018-01-02T03:25:41.589Z,1001.28
2018-01-02T03:26:50.516Z,1001.24
2018-01-02T03:27:59.194Z,1001.25
2018-01-02T03:29:08.128Z,1001.24
2018-01-02T03:30:17.081Z,1001.17
2018-01-02T03:31:26.291Z,1001.21
2018-01-02T03:32:34.963Z,1001.18
2018-01-02T03:33:43.648Z,1001.17
2018-01-02T03:34:53.097Z,1001.12
2018-01-02T03:36:02.277Z,1001.17
2018-01-02T03:37:10.952Z,1001.18
2018-01-02T03:38:19.708Z,1001.18
2018-01-02T03:39:28.913Z,1001.14
2018-01-02T03:40:37.852Z,1001.27
2018-01-02T03:41:47.308Z,1001.22
2018-01-02T03:42:56.245Z,1001.19
2018-01-02T03:44:05.179Z,1001.26
2018-01-02T03:45:14.109Z,1001.25
2018-01-02T03:46:23.563Z,1001.24
2018-01-02T03:47:32.768Z,1001.34
2018-01-02T03:48:41.967Z,1001.3
2018-01-02T03:49:50.921Z,1001.34
2018-01-02T03:50:59.858Z,1001.32
2018-01-02T03:52:08.529Z,1001.4
2018-01-02T03:53:17.730Z,1001.36
2018-01-02T03:54:26.659Z,1001.41
2018-01-02T03:55:36.118Z,1001.4
2018-01-02T03:56:44.793Z,1001.41
2018-01-02T03:57:53.737Z,1001.41
2018-01-02T03:59:03.193Z,1001.39
2018-01-02T04:00:12.129Z,1001.41
2018-01-02T04:01:21.084Z,1001.4
2018-01-02T04:02:30.013Z,1001.41
2018-01-02T04:03:39.210Z,1001.44
2018-01-02T04:04:48.411Z,1001.42
2018-01-02T04:05:57.344Z,1001.43
2018-01-02T04:07:06.819Z,1001.45
2018-01-02T04:08:16.017Z,1001.53
2018-01-02T04:09:24.768Z,1001.51
2018-01-02T04:10:33.445Z,1001.53
2018-01-02T04:11:42.662Z,1001.51
2018-01-02T04:12:51.862Z,1001.5
2018-01-02T04:14:01.059Z,1001.51
2018-01-02T04:15:09.740Z,1001.45
2018-01-02T04:16:18.930Z,1001.51
2018-01-02T04:17:27.866Z,1001.54
2018-01-02T04:18:36.561Z,1001.53
2018-01-02T04:19:45.500Z,1001.54
2018-01-02T04:20:54.699Z,1001.59
2018-01-02T04:22:03.374Z,1001.6
2018-01-02T04:23:12.319Z,1001.59
2018-01-02T04:24:21.266Z,1001.6
2018-01-02T04:25:30.723Z,1001.61
2018-01-02T04:26:39.399Z,1001.65
2018-01-02T04:27:48.595Z,1001.7
2018-01-02T04:28:57.526Z,1001.73
2018-01-02T04:30:06.470Z,1001.77
2018-01-02T04:31:16.182Z,1001.73
2018-01-02T04:32:24.856Z,1001.82
2018-01-02T04:33:34.066Z,1001.85
2018-01-02T04:34:43.013Z,1001.88
2018-01-02T04:35:51.950Z,1001.92
2018-01-02T04:37:00.902Z,1001.94
2018-01-02T04:38:09.836Z,1001.93
2018-01-02T04:39:19.031Z,1001.97
2018-01-02T04:40:27.962Z,1001.95
2018-01-02T04:41:37.438Z,1001.98
2018-01-02T04:42:46.642Z,1001.96
2018-01-02T04:43:55.597Z,1001.97
2018-01-02T04:45:04.292Z,1001.98
2018-01-02T04:46:13.767Z,1002.03
2018-01-02T04:47:22.698Z,1002.04
2018-01-02T04:48:31.629Z,1002.12
2018-01-02T04:49:40.294Z,1002.12
2018-01-02T04:50:49.226Z,1002.16
2018-01-02T04:51:58.449Z,1002.19
2018-01-02T04:53:07.640Z,1002.2
2018-01-02T04:54:16.390Z,1002.16
2018-01-02T04:55:25.066Z,1002.22
2018-01-02T04:56:34.013Z,1002.25
2018-01-02T04:57:43.476Z,1002.32
2018-01-02T04:58:52.687Z,1002.31
2018-01-02T05:00:01.636Z,1002.34
2018-01-02T05:01:10.827Z,1002.43
2018-01-02T05:02:20.027Z,1002.47
2018-01-02T05:03:29.500Z,1002.51
2018-01-02T05:04:39.020Z,1002.47
2018-01-02T05:05:48.210Z,1002.52
2018-01-02T05:06:57.415Z,1002.57
2018-01-02T05:08:06.104Z,1002.54
2018-01-02T05:09:15.819Z,1002.65
2018-01-02T05:10:24.769Z,1002.63
2018-01-02T05:11:33.448Z,1002.76
2018-01-02T05:12:42.383Z,1002.73
2018-01-02T05:13:51.842Z,1002.74
2018-01-02T05:15:00.791Z,1002.79
2018-01-02T05:16:09.741Z,1002.78
2018-01-02T05:17:18.948Z,1002.86
2018-01-02T05:18:27.903Z,1002.86
2018-01-02T05:19:36.583Z,1002.86
2018-01-02T05:20:45.527Z,1002.89
2018-01-02T05:21:54.460Z,1002.91
2018-01-02T05:23:03.144Z,1002.91
2018-01-02T05:24:12.081Z,1002.92
2018-01-02T05:25:21.036Z,1002.99
2018-01-02T05:26:29.967Z,1002.97
2018-01-02T05:27:38.648Z,1003.02
2018-01-02T05:28:47.855Z,1003.09
2018-01-02T05:29:57.316Z,1003.08
2018-01-02T05:31:05.990Z,1003.13
2018-01-02T05:32:14.692Z,1003.16
2018-01-02T05:33:23.373Z,1003.19
2018-01-02T05:34:32.314Z,1003.23
2018-01-02T05:35:41.512Z,1003.22
2018-01-02T05:36:50.465Z,1003.3
2018-01-02T05:37:59.755Z,1003.29
2018-01-02T05:39:08.961Z,1003.32
2018-01-02T05:40:17.906Z,1003.27
2018-01-02T05:41:27.366Z,1003.32
2018-01-02T05:42:37.089Z,1003.35
2018-01-02T05:43:45.767Z,1003.4
2018-01-02T05:44:54.450Z,1003.39
2018-01-02T05:46:03.653Z,1003.46
2018-01-02T05:47:12.596Z,1003.47
2018-01-02T05:48:21.796Z,1003.49
2018-01-02T05:49:31.554Z,1003.51
2018-01-02T05:50:40.487Z,1003.49
2018-01-02T05:51:50.204Z,1003.61
2018-01-02T05:52:59.145Z,1003.59
2018-01-02T05:54:08.341Z,1003.65
2018-01-02T05:55:17.548Z,1003.65
2018-01-02T05:56:26.480Z,1003.67
2018-01-02T05:57:35.162Z,1003.65
2018-01-02T05:58:43.830Z,1003.7
2018-01-02T05:59:52.510Z,1003.72
2018-01-02T06:01:01.720Z,1003.76
2018-01-02T06:02:10.916Z,1003.7
2018-01-02T06:03:19.850Z,1003.78
2018-01-02T06:04:28.547Z,1003.78
2018-01-02T06:05:37.473Z,1003.85
2018-01-02T06:06:46.417Z,1003.87
2018-01-02T06:07:56.141Z,1003.87
2018-01-02T06:09:05.344Z,1003.87
2018-01-02T06:10:14.290Z,1003.91
2018-01-02T06:11:23.766Z,1003.92
2018-01-02T06:12:32.720Z,1003.93
2018-01-02T06:13:42.181Z,1004
2018-01-02T06:14:50.890Z,1004.04
2018-01-02T06:15:59.561Z,1004.07
2018-01-02T06:17:08.498Z,1004.07
2018-01-02T06:18:17.165Z,1004.11
2018-01-02T06:19:26.363Z,1004.07
2018-01-02T06:20:35.878Z,1004.19
2018-01-02T06:21:45.083Z,1004.17
2018-01-02T06:22:54.016Z,1004.19
2018-01-02T06:24:03.476Z,1004.19
2018-01-02T06:25:12.673Z,1004.27
2018-01-02T06:26:21.609Z,1004.29
2018-01-02T06:27:30.282Z,1004.33
2018-01-02T06:28:39.465Z,1004.38
2018-01-02T06:29:48.663Z,1004.44
2018-01-02T06:30:58.126Z,1004.48
2018-01-02T06:32:06.807Z,1004.47
2018-01-02T06:33:15.769Z,1004.45
2018-01-02T06:34:24.966Z,1004.49
2018-01-02T06:35:33.650Z,1004.53
2018-01-02T06:36:42.591Z,1004.57
2018-01-02T06:37:51.262Z,1004.57
2018-01-02T06:39:00.481Z,1004.58
2018-01-02T06:40:09.677Z,1004.61
2018-01-02T06:41:18.619Z,1004.55
2018-01-02T06:42:27.574Z,1004.62
2018-01-02T06:43:36.534Z,1004.61
2018-01-02T06:44:45.215Z,1004.65
2018-01-02T06:45:54.423Z,1004.68
2018-01-02T06:47:03.090Z,1004.7
2018-01-02T06:48:12.038Z,1004.73
2018-01-02T06:49:20.983Z,1004.74
2018-01-02T06:50:29.923Z,1004.8
2018-01-02T06:51:38.868Z,1004.81
2018-01-02T06:52:47.805Z,1004.83
2018-01-02T06:53:57.008Z,1004.78
2018-01-02T06:55:05.692Z,1004.78
2018-01-02T06:56:14.372Z,1004.83
2018-01-02T06:57:23.317Z,1004.85
2018-01-02T06:58:32.256Z,1004.85
2018-01-02T06:59:41.465Z,1004.84
2018-01-02T07:00:51.192Z,1004.89
2018-01-02T07:02:00.384Z,1004.93
2018-01-02T07:03:09.067Z,1004.94
2018-01-02T07:04:18.286Z,1004.95
2018-01-02T07:05:27.223Z,1004.96
2018-01-02T07:06:36.423Z,1005.01
2018-01-02T07:07:45.103Z,1004.98
2018-01-02T07:08:53.779Z,1004.95
2018-01-02T07:10:02.458Z,1004.94
2018-01-02T07:11:11.404Z,1005.14
2018-01-02T07:12:20.336Z,1005.15
2018-01-02T07:13:29.009Z,1005.16
2018-01-02T07:14:37.941Z,1005.15
2018-01-02T07:15:46.881Z,1005.13
2018-01-02T07:16:55.820Z,1005.24
2018-01-02T07:18:04.750Z,1005.23
2018-01-02T07:19:13.430Z,1005.25
2018-01-02T07:20:22.448Z,1005.26
2018-01-02T07:21:31.385Z,1005.25
2018-01-02T07:22:40.073Z,1005.31
2018-01-02T07:23:49.006Z,1005.32
2018-01-02T07:24:57.932Z,1005.31
2018-01-02T07:26:06.877Z,1005.32
2018-01-02T07:27:15.546Z,1005.32
2018-01-02T07:28:24.734Z,1005.36
2018-01-02T07:29:33.671Z,1005.39
2018-01-02T07:30:42.603Z,1005.46
2018-01-02T07:31:51.290Z,1005.46
2018-01-02T07:33:00.752Z,1005.49
2018-01-02T07:34:09.683Z,1005.53
2018-01-02T07:35:18.878Z,1005.48
2018-01-02T07:36:27.552Z,1005.56
2018-01-02T07:37:36.501Z,1005.61
2018-01-02T07:38:45.177Z,1005.58
2018-01-02T07:39:54.649Z,1005.65
2018-01-02T07:41:03.331Z,1005.67
2018-01-02T07:42:12.268Z,1005.8
2018-01-02T07:43:21.462Z,1005.82
2018-01-02T07:44:30.404Z,1005.88
2018-01-02T07:45:39.344Z,1005.85
2018-01-02T07:46:48.294Z,1006.04
2018-01-02T07:47:57.232Z,1006.03
2018-01-02T07:49:05.899Z,1006.01
2018-01-02T07:50:14.836Z,1006.11
2018-01-02T07:51:24.310Z,1006.1
2018-01-02T07:52:32.997Z,1006.12
2018-01-02T07:53:41.664Z,1006.14
2018-01-02T07:54:50.856Z,1006.16
2018-01-02T07:55:59.528Z,1006.23
2018-01-02T07:57:08.455Z,1006.26
2018-01-02T07:58:17.656Z,1006.33
2018-01-02T07:59:26.600Z,1006.32
2018-01-02T08:00:35.281Z,1006.34
2018-01-02T08:01:44.280Z,1006.42
2018-01-02T08:02:53.488Z,1006.49
2018-01-02T08:04:02.165Z,1006.55
2018-01-02T08:05:11.103Z,1006.58
2018-01-02T08:06:20.346Z,1006.61
2018-01-02T08:07:29.858Z,1006.66
2018-01-02T08:08:38.532Z,1006.7
2018-01-02T08:09:47.471Z,1006.71
2018-01-02T08:10:56.411Z,1006.75
2018-01-02T08:12:05.097Z,1006.73
2018-01-02T08:13:14.040Z,1006.74
2018-01-02T08:14:23.042Z,1006.73
2018-01-02T08:15:32.511Z,1006.86
2018-01-02T08:16:41.189Z,1006.84
2018-01-02T08:17:49.856Z,1006.95
2018-01-02T08:18:58.794Z,1006.96
2018-01-02T08:20:07.732Z,1006.94
2018-01-02T08:21:16.681Z,1007
2018-01-02T08:22:25.360Z,1006.96
2018-01-02T08:23:34.564Z,1007.02
2018-01-02T08:24:43.773Z,1006.98
2018-01-02T08:25:52.960Z,1007.05
2018-01-02T08:27:01.652Z,1007.06
2018-01-02T08:28:10.334Z,1007.09
2018-01-02T08:29:19.014Z,1007.12
2018-01-02T08:30:27.950Z,1007.14
2018-01-02T08:31:36.629Z,1007.17
2018-01-02T08:32:45.307Z,1007.23
2018-01-02T08:33:54.291Z,1007.16
2018-01-02T08:35:03.786Z,1007.15
2018-01-02T08:36:12.816Z,1007.2
2018-01-02T08:37:21.515Z,1007.2
2018-01-02T08:38:30.459Z,1007.26
2018-01-02T08:39:39.405Z,1007.22
2018-01-02T08:40:49.320Z,1007.3
2018-01-02T08:41:58.532Z,1007.38
2018-01-02T08:43:07.994Z,1007.37
2018-01-02T08:44:16.911Z,1007.38
2018-01-02T08:45:26.103Z,1007.37
2018-01-02T08:46:35.407Z,1007.5
2018-01-02T08:47:44.635Z,1007.38
2018-01-02T08:48:53.839Z,1007.45
2018-01-02T08:50:02.525Z,1007.49
2018-01-02T08:51:11.484Z,1007.53
2018-01-02T08:52:20.158Z,1007.51
2018-01-02T08:53:29.108Z,1007.48
2018-01-02T08:54:38.060Z,1007.54
2018-01-02T08:55:47.523Z,1007.59
2018-01-02T08:56:56.474Z,1007.6
2018-01-02T08:58:05.669Z,1007.56
2018-01-02T08:59:14.362Z,1007.64
2018-01-02T09:00:23.311Z,1007.64
2018-01-02T09:01:31.983Z,1007.66
2018-01-02T09:02:40.658Z,1007.64
2018-01-02T09:03:49.861Z,1007.65
2018-01-02T09:04:58.798Z,1007.69
2018-01-02T09:06:07.991Z,1007.71
2018-01-02T09:07:16.660Z,1007.67
2018-01-02T09:08:25.618Z,1007.66
2018-01-02T09:09:34.335Z,1007.73
2018-01-02T09:10:43.271Z,1007.69
2018-01-02T09:11:52.468Z,1007.75
2018-01-02T09:13:01.142Z,1007.78
2018-01-02T09:14:09.821Z,1007.69
2018-01-02T09:15:19.016Z,1007.68
2018-01-02T09:16:28.468Z,1007.7
2018-01-02T09:17:37.537Z,1007.67
2018-01-02T09:18:46.221Z,1007.69
2018-01-02T09:19:54.891Z,1007.7
2018-01-02T09:21:04.088Z,1007.72
2018-01-02T09:22:13.021Z,1007.72
2018-01-02T09:23:21.959Z,1007.7
2018-01-02T09:24:31.418Z,1007.77
2018-01-02T09:25:40.619Z,1007.78
2018-01-02T09:26:49.818Z,1007.81
2018-01-02T09:27:58.755Z,1007.77
2018-01-02T09:29:08.225Z,1007.82
2018-01-02T09:30:17.965Z,1007.8
2018-01-02T09:31:27.365Z,1007.84
2018-01-02T09:32:36.110Z,1007.86
2018-01-02T09:33:45.888Z,1007.88
2018-01-02T09:34:55.118Z,1007.91
2018-01-02T09:36:05.079Z,1007.98
2018-01-02T09:37:14.607Z,1007.98
2018-01-02T09:38:23.832Z,1008
2018-01-02T09:39:33.300Z,1007.95
2018-01-02T09:40:41.980Z,1007.98
2018-01-02T09:41:51.441Z,1008.01
2018-01-02T09:43:00.371Z,1008.01
2018-01-02T09:44:09.301Z,1008.01
2018-01-02T09:45:18.297Z,1008.01
2018-01-02T09:46:27.921Z,1007.98
2018-01-02T09:47:37.376Z,1008.07
2018-01-02T09:48:46.588Z,1008.02
2018-01-02T09:49:56.056Z,1007.97
2018-01-02T09:51:05.595Z,1007.97
2018-01-02T09:52:14.352Z,1007.99
2018-01-02T09:53:23.287Z,1007.99
2018-01-02T09:54:31.972Z,1008.03
2018-01-02T09:55:41.174Z,1008.08
2018-01-02T09:56:50.110Z,1008.04
2018-01-02T09:57:58.891Z,1008.04
2018-01-02T09:59:08.084Z,1008.08
2018-01-02T10:00:17.026Z,1008.05
2018-01-02T10:01:25.965Z,1008.15
2018-01-02T10:02:35.171Z,1008.1
2018-01-02T10:03:44.375Z,1008.15
2018-01-02T10:04:54.093Z,1008.08
2018-01-02T10:06:02.770Z,1008.14
2018-01-02T10:07:11.705Z,1008.08
2018-01-02T10:08:20.658Z,1008.1
2018-01-02T10:09:29.645Z,1008.09
2018-01-02T10:10:38.584Z,1008.05
2018-01-02T10:11:48.032Z,1008.13
2018-01-02T10:12:56.962Z,1008.1
2018-01-02T10:14:05.920Z,1008.11
2018-01-02T10:15:14.821Z,1008.12
2018-01-02T10:16:23.778Z,1008.12
2018-01-02T10:17:32.716Z,1008.19
2018-01-02T10:18:41.637Z,1008.11
2018-01-02T10:19:50.307Z,1008.15
2018-01-02T10:20:59.033Z,1008.13
2018-01-02T10:22:07.672Z,1008.12
2018-01-02T10:23:16.607Z,1008.1
2018-01-02T10:24:26.070Z,1008.11
2018-01-02T10:25:35.018Z,1008.12
2018-01-02T10:26:44.242Z,1008.14
2018-01-02T10:27:53.187Z,1008.12
2018-01-02T10:29:02.388Z,1008.12
2018-01-02T10:30:11.831Z,1008.13
2018-01-02T10:31:21.287Z,1008.16
2018-01-02T10:32:30.728Z,1008.21
2018-01-02T10:33:39.936Z,1008.21
2018-01-02T10:34:48.610Z,1008.18
2018-01-02T10:35:57.549Z,1008.26
2018-01-02T10:37:06.219Z,1008.25
2018-01-02T10:38:15.166Z,1008.23
2018-01-02T10:39:24.508Z,1008.29
2018-01-02T10:40:34.351Z,1008.26
2018-01-02T10:41:43.289Z,1008.22
2018-01-02T10:42:52.742Z,1008.17
2018-01-02T10:44:01.680Z,1008.21
2018-01-02T10:45:10.355Z,1008.23
2018-01-02T10:46:19.283Z,1008.23
2018-01-02T10:47:28.288Z,1008.19
2018-01-02T10:48:37.217Z,1008.14
2018-01-02T10:49:45.891Z,1008.17
2018-01-02T10:50:54.826Z,1008.21
2018-01-02T10:52:03.757Z,1008.22
2018-01-02T10:53:12.429Z,1008.26
2018-01-02T10:54:21.619Z,1008.21
2018-01-02T10:55:30.579Z,1008.19
2018-01-02T10:56:39.575Z,1008.17
2018-01-02T10:57:48.762Z,1008.08
2018-01-02T10:58:57.700Z,1008.16
2018-01-02T11:00:06.643Z,1008.21
2018-01-02T11:01:15.309Z,1008.18
2018-01-02T11:02:24.246Z,1008.23
2018-01-02T11:03:32.913Z,1008.21
2018-01-02T11:04:41.598Z,1008.23
2018-01-02T11:05:50.550Z,1008.27
2018-01-02T11:06:59.241Z,1008.27
2018-01-02T11:08:07.922Z,1008.3
2018-01-02T11:09:16.951Z,1008.33
2018-01-02T11:10:26.405Z,1008.38
2018-01-02T11:11:35.079Z,1008.39
2018-01-02T11:12:44.274Z,1008.35
2018-01-02T11:13:53.758Z,1008.38
2018-01-02T11:15:03.384Z,1008.44
2018-01-02T11:16:12.638Z,1008.35
2018-01-02T11:17:21.600Z,1008.39
2018-01-02T11:18:30.577Z,1008.4
2018-01-02T11:19:39.262Z,1008.36
2018-01-02T11:20:48.194Z,1008.43
2018-01-02T11:21:57.392Z,1008.42
2018-01-02T11:23:06.406Z,1008.42
2018-01-02T11:24:15.337Z,1008.37
2018-01-02T11:25:24.017Z,1008.37
2018-01-02T11:26:32.950Z,1008.43
2018-01-02T11:27:42.143Z,1008.4
2018-01-02T11:28:50.814Z,1008.5
2018-01-02T11:30:00.112Z,1008.45
2018-01-02T11:31:09.306Z,1008.5
2018-01-02T11:32:18.246Z,1008.51
2018-01-02T11:33:26.918Z,1008.55
2018-01-02T11:34:35.865Z,1008.52
2018-01-02T11:35:44.558Z,1008.64
2018-01-02T11:36:53.514Z,1008.59
2018-01-02T11:38:02.489Z,1008.68
2018-01-02T11:39:11.392Z,1008.67
2018-01-02T11:40:20.335Z,1008.69
2018-01-02T11:41:29.280Z,1008.69
2018-01-02T11:42:37.949Z,1008.59
2018-01-02T11:43:46.620Z,1008.58
2018-01-02T11:44:55.290Z,1008.58
2018-01-02T11:46:04.228Z,1008.58
2018-01-02T11:47:13.164Z,1008.56
2018-01-02T11:48:21.852Z,1008.52
2018-01-02T11:49:31.571Z,1008.51
2018-01-02T11:50:40.254Z,1008.54
2018-01-02T11:51:49.208Z,1008.52
2018-01-02T11:52:57.881Z,1008.51
2018-01-02T11:54:07.083Z,1008.44
2018-01-02T11:55:16.284Z,1008.41
2018-01-02T11:56:25.494Z,1008.4
2018-01-02T11:57:34.685Z,1008.43
2018-01-02T11:58:43.627Z,1008.42
2018-01-02T11:59:52.859Z,1008.43
2018-01-02T12:01:02.056Z,1008.43
2018-01-02T12:02:10.982Z,1008.37
2018-01-02T12:03:19.925Z,1008.32
2018-01-02T12:04:29.384Z,1008.33
2018-01-02T12:05:38.064Z,1008.33
2018-01-02T12:06:46.993Z,1008.33
2018-01-02T12:07:55.663Z,1008.31
2018-01-02T12:09:04.333Z,1008.33
2018-01-02T12:10:13.083Z,1008.33
2018-01-02T12:11:22.029Z,1008.24
2018-01-02T12:12:30.703Z,1008.29
2018-01-02T12:13:39.643Z,1008.3
2018-01-02T12:14:48.577Z,1008.32
2018-01-02T12:15:57.786Z,1008.25
2018-01-02T12:17:06.714Z,1008.19
2018-01-02T12:18:15.385Z,1008.15
2018-01-02T12:19:24.314Z,1008.14
2018-01-02T12:20:33.772Z,1008.14
2018-01-02T12:21:42.963Z,1008.12
2018-01-02T12:22:51.894Z,1008.08
2018-01-02T12:24:00.836Z,1008.06
2018-01-02T12:25:10.029Z,1007.99
2018-01-02T12:26:18.967Z,1008.06
2018-01-02T12:27:27.908Z,1008.03
2018-01-02T12:28:36.839Z,1007.99
2018-01-02T12:29:46.048Z,1007.93
2018-01-02T12:30:55.237Z,1007.96
2018-01-02T12:32:04.242Z,1007.97
2018-01-02T12:33:13.686Z,1007.9
2018-01-02T12:34:22.358Z,1007.9
2018-01-02T12:35:31.358Z,1007.88
2018-01-02T12:36:40.039Z,1007.87
2018-01-02T12:37:49.232Z,1007.85
2018-01-02T12:38:58.175Z,1007.78
2018-01-02T12:40:07.371Z,1007.81
2018-01-02T12:41:16.574Z,1007.8
2018-01-02T12:42:25.278Z,1007.78
2018-01-02T12:43:34.464Z,1007.83
2018-01-02T12:44:43.482Z,1007.78
2018-01-02T12:45:52.159Z,1007.82
2018-01-02T12:47:01.097Z,1007.81
2018-01-02T12:48:10.037Z,1007.83
2018-01-02T12:49:19.238Z,1007.83
2018-01-02T12:50:28.787Z,1007.83
2018-01-02T12:51:37.991Z,1007.86
2018-01-02T12:52:46.666Z,1007.96
2018-01-02T12:53:55.865Z,1007.91
2018-01-02T12:55:05.071Z,1008
2018-01-02T12:56:14.012Z,1008.03
2018-01-02T12:57:23.237Z,1008.06
2018-01-02T12:58:32.447Z,1008.1
2018-01-02T12:59:41.120Z,1008.11
2018-01-02T13:00:50.052Z,1008.13
2018-01-02T13:01:59.565Z,1008.18
2018-01-02T13:03:09.266Z,1008.17
2018-01-02T13:04:18.213Z,1008.15
2018-01-02T13:05:27.405Z,1008.14
2018-01-02T13:06:36.346Z,1008.13
2018-01-02T13:07:45.280Z,1008.11
2018-01-02T13:08:53.953Z,1008.08
2018-01-02T13:10:03.161Z,1008.06
2018-01-02T13:11:12.648Z,1008.03
2018-01-02T13:12:21.406Z,1008.07
2018-01-02T13:13:30.622Z,1008
2018-01-02T13:14:40.188Z,1007.98
2018-01-02T13:15:48.976Z,1007.93
2018-01-02T13:16:58.453Z,1007.96
2018-01-02T13:18:07.393Z,1008
2018-01-02T13:19:16.589Z,1008.03
2018-01-02T13:20:25.269Z,1007.96
2018-01-02T13:21:34.725Z,1007.93
2018-01-02T13:22:44.180Z,1007.93
2018-01-02T13:23:53.102Z,1007.89
2018-01-02T13:25:02.040Z,1007.93
2018-01-02T13:26:10.973Z,1007.89
2018-01-02T13:27:19.640Z,1007.89
2018-01-02T13:28:28.346Z,1007.93
2018-01-02T13:29:37.560Z,1007.97
2018-01-02T13:30:46.494Z,1007.89
2018-01-02T13:31:55.693Z,1007.96
2018-01-02T13:33:04.631Z,1007.97
2018-01-02T13:34:13.830Z,1008.01
2018-01-02T13:35:22.507Z,1007.98
2018-01-02T13:36:31.447Z,1008.05
2018-01-02T13:37:40.380Z,1008.1
2018-01-02T13:38:49.318Z,1008.1
2018-01-02T13:39:58.511Z,1008.04
2018-01-02T13:41:07.181Z,1007.91
2018-01-02T13:42:16.641Z,1007.86
2018-01-02T13:43:25.330Z,1007.86
2018-01-02T13:44:34.331Z,1007.88
2018-01-02T13:45:43.043Z,1007.88
2018-01-02T13:46:53.152Z,1007.89
2018-01-02T13:48:02.734Z,1007.83
2018-01-02T13:49:11.669Z,1007.83
2018-01-02T13:50:20.336Z,1007.87
2018-01-02T13:51:29.676Z,1007.91
2018-01-02T13:52:38.615Z,1007.85
2018-01-02T13:53:47.307Z,1007.81
2018-01-02T13:54:56.117Z,1007.8
2018-01-02T13:56:05.417Z,1007.79
2018-01-02T13:57:14.387Z,1007.83
2018-01-02T13:58:24.702Z,1007.83
2018-01-02T13:59:33.960Z,1007.84
2018-01-02T14:00:43.165Z,1007.87
2018-01-02T14:01:52.365Z,1007.82
2018-01-02T14:03:01.433Z,1007.8
2018-01-02T14:04:10.117Z,1007.75